Terminal Aerodrome Forecast
Issued by NWS

Home | Current Version | Previous Version | Text Only | Print | Product List | Glossary On
Versions: 1 2 3 4 5 6 7 8 9 10 11 12 13 14 15 16 17 18 19 20
528
FTUS43 KSGF 261002 AAA
TAFJLN
TAF AMD
KJLN 261002Z 2610/2706 12006KT P6SM SCT040 OVC060
     FM261200 18010KT P6SM BKN020 OVC060
     FM261300 18011KT P6SM VCTS OVC010CB
     FM261700 19013G20KT P6SM SCT020 OVC110
     FM262000 17012G20KT P6SM SCT040 BKN150
     FM270000 17013KT P6SM VCTS SCT040CB BKN090
      TEMPO 2700/2704 VRB15G30KT 2SM TSRA OVC030CB=

USA.gov is the U.S. government's official web portal to all federal, state and local government web resources and services.